createdAt,value
2023-05-09T00:00:10.534Z,10.22
2023-05-09T00:01:10.555Z,10.39
2023-05-09T00:03:10.563Z,10.56
2023-05-09T00:04:10.585Z,10.39
2023-05-09T00:05:10.554Z,10.56
2023-05-09T00:07:10.551Z,10.39
2023-05-09T00:08:10.567Z,9.94
2023-05-09T00:09:10.541Z,10.39
2023-05-09T00:10:10.566Z,10.39
2023-05-09T00:11:10.544Z,10.39
2023-05-09T00:12:10.554Z,10.39
2023-05-09T00:13:10.620Z,10.22
2023-05-09T00:14:10.548Z,10.22
2023-05-09T00:15:10.616Z,10.22
2023-05-09T00:16:10.627Z,10.11
2023-05-09T00:17:10.567Z,10.11
2023-05-09T00:18:10.556Z,10.11
2023-05-09T00:19:10.568Z,10.22
2023-05-09T00:21:10.683Z,10.22
2023-05-09T00:23:10.572Z,10.11
2023-05-09T00:24:10.561Z,10.11
2023-05-09T00:26:10.557Z,10.11
2023-05-09T00:28:10.559Z,10.22
2023-05-09T00:30:10.578Z,10.11
2023-05-09T00:31:10.568Z,10.11
2023-05-09T00:32:10.697Z,10.11
2023-05-09T00:33:10.618Z,10.11
2023-05-09T00:34:10.566Z,9.94
2023-05-09T00:36:10.571Z,9.94
2023-05-09T00:37:10.722Z,9.94
2023-05-09T00:39:10.573Z,10.39
2023-05-09T00:40:10.570Z,10.39
2023-05-09T00:41:10.632Z,10.22
2023-05-09T00:42:10.584Z,10.11
2023-05-09T00:44:10.592Z,10.22
2023-05-09T00:45:10.594Z,10.11
2023-05-09T00:46:10.598Z,10.22
2023-05-09T00:47:10.598Z,10.11
2023-05-09T00:48:10.606Z,10.39
2023-05-09T00:49:10.579Z,10.39
2023-05-09T00:50:10.580Z,10.22
2023-05-09T00:52:10.576Z,10.22
2023-05-09T00:53:10.718Z,10.11
2023-05-09T00:55:10.610Z,10.11
2023-05-09T00:56:10.577Z,10.11
2023-05-09T00:57:10.588Z,10.11
2023-05-09T00:58:10.608Z,10.11
2023-05-09T01:00:10.618Z,10.11
2023-05-09T01:01:10.658Z,9.78
2023-05-09T01:02:10.612Z,10.11
2023-05-09T01:03:10.675Z,10.11
2023-05-09T01:04:10.596Z,9.78
2023-05-09T01:05:10.611Z,10.11
2023-05-09T01:07:10.596Z,10.11
2023-05-09T01:08:10.601Z,10.11
2023-05-09T01:09:10.763Z,10.11
2023-05-09T01:11:10.621Z,10.11
2023-05-09T01:12:10.593Z,10.11
2023-05-09T01:13:10.690Z,10.11
2023-05-09T01:14:10.610Z,10.11
2023-05-09T01:15:10.616Z,10.11
2023-05-09T01:17:10.617Z,10.11
2023-05-09T01:18:10.632Z,10.11
2023-05-09T01:19:10.618Z,9.94
2023-05-09T01:21:10.623Z,9.94
2023-05-09T01:22:10.623Z,9.94
2023-05-09T01:23:10.616Z,10.11
2023-05-09T01:24:10.648Z,10.11
2023-05-09T01:25:10.730Z,9.94
2023-05-09T01:27:10.612Z,10.11
2023-05-09T01:28:10.663Z,10.11
2023-05-09T01:29:10.648Z,9.78
2023-05-09T01:31:10.636Z,10.11
2023-05-09T01:32:10.647Z,10.11
2023-05-09T01:33:10.713Z,10.11
2023-05-09T01:35:10.613Z,10.11
2023-05-09T01:36:10.632Z,10.11
2023-05-09T01:38:10.632Z,10.11
2023-05-09T01:39:10.627Z,9.78
2023-05-09T01:40:10.623Z,10.11
2023-05-09T01:41:10.750Z,9.94
2023-05-09T01:43:10.633Z,10.11
2023-05-09T01:44:10.638Z,10.11
2023-05-09T01:45:10.624Z,10.11
2023-05-09T01:46:10.637Z,10.11
2023-05-09T01:47:10.637Z,10.11
2023-05-09T01:49:10.627Z,10.11
2023-05-09T01:51:10.628Z,10.22
2023-05-09T01:52:10.628Z,10.11
2023-05-09T01:53:10.618Z,10.39
2023-05-09T01:54:10.629Z,10.11
2023-05-09T01:56:10.651Z,9.78
2023-05-09T01:57:10.764Z,9.94
2023-05-09T01:59:10.635Z,9.94
2023-05-09T02:01:10.674Z,10.11
2023-05-09T02:03:10.687Z,9.94
2023-05-09T02:04:10.632Z,10.22
2023-05-09T02:05:10.633Z,10.11
2023-05-09T02:06:10.639Z,10.11
2023-05-09T02:08:10.648Z,9.78
2023-05-09T02:09:10.626Z,9.94
2023-05-09T02:10:10.632Z,9.78
2023-05-09T02:11:10.641Z,9.94
2023-05-09T02:12:10.649Z,9.94
2023-05-09T02:13:10.772Z,9.94
2023-05-09T02:15:10.657Z,9.94
2023-05-09T02:16:10.652Z,9.78
2023-05-09T02:17:10.656Z,9.94
2023-05-09T02:19:10.632Z,10.11
2023-05-09T02:20:10.645Z,10.11
2023-05-09T02:22:10.640Z,10.11
2023-05-09T02:23:10.630Z,9.94
2023-05-09T02:24:10.642Z,9.94
2023-05-09T02:25:10.651Z,10.11
2023-05-09T02:26:10.639Z,9.94
2023-05-09T02:27:10.629Z,9.78
2023-05-09T02:28:10.646Z,9.94
2023-05-09T02:29:10.781Z,9.94
2023-05-09T02:31:10.650Z,10.11
2023-05-09T02:33:10.678Z,9.94
2023-05-09T02:35:10.642Z,10.11
2023-05-09T02:36:10.647Z,10.11
2023-05-09T02:37:10.645Z,9.94
2023-05-09T02:39:10.649Z,9.94
2023-05-09T02:40:10.636Z,10.11
2023-05-09T02:41:10.641Z,9.94
2023-05-09T02:42:10.662Z,10.11
2023-05-09T02:43:10.643Z,10.11
2023-05-09T02:44:10.655Z,10.11
2023-05-09T02:45:10.775Z,10.11
2023-05-09T02:47:10.647Z,10.11
2023-05-09T02:48:10.670Z,9.94
2023-05-09T02:49:14.701Z,10.11
2023-05-09T02:50:10.681Z,10.11
2023-05-09T02:52:10.666Z,10.11
2023-05-09T02:53:10.670Z,10.56
2023-05-09T02:55:10.671Z,10.22
2023-05-09T02:56:10.691Z,10.39
2023-05-09T02:58:14.518Z,10.11
2023-05-09T02:59:10.675Z,10.39
2023-05-09T03:00:10.688Z,10.11
2023-05-09T03:01:10.854Z,10.22
2023-05-09T03:03:10.807Z,10.56
2023-05-09T03:04:10.687Z,10.11
2023-05-09T03:05:10.689Z,10.11
2023-05-09T03:06:10.687Z,10.11
2023-05-09T03:07:10.679Z,10.22
2023-05-09T03:08:10.696Z,10.11
2023-05-09T03:10:10.693Z,10.11
2023-05-09T03:11:10.700Z,10.11
2023-05-09T03:12:10.680Z,9.94
2023-05-09T03:13:10.710Z,10.11
2023-05-09T03:14:10.711Z,10.11
2023-05-09T03:15:10.691Z,10.11
2023-05-09T03:16:10.723Z,10.11
2023-05-09T03:17:10.840Z,9.94
2023-05-09T03:19:10.703Z,10.22
2023-05-09T03:21:10.727Z,10.11
2023-05-09T03:22:10.693Z,10.11
2023-05-09T03:23:10.715Z,10.11
2023-05-09T03:24:10.706Z,10.11
2023-05-09T03:25:10.731Z,9.94
2023-05-09T03:26:10.725Z,10.11
2023-05-09T03:27:10.707Z,10.11
2023-05-09T03:28:10.715Z,10.11
2023-05-09T03:29:10.712Z,10.11
2023-05-09T03:30:10.715Z,10.11
2023-05-09T03:31:10.741Z,9.94
2023-05-09T03:32:10.985Z,9.78
2023-05-09T03:33:10.918Z,9.67
2023-05-09T03:35:10.724Z,9.94
2023-05-09T03:37:10.730Z,9.67
2023-05-09T03:38:10.726Z,9.78
2023-05-09T03:39:10.726Z,10.11
2023-05-09T03:40:10.739Z,9.94
2023-05-09T03:41:10.736Z,10.11
2023-05-09T03:42:10.746Z,10.11
2023-05-09T03:44:10.736Z,10.11
2023-05-09T03:46:10.816Z,10.11
2023-05-09T03:48:10.772Z,10.11
2023-05-09T03:49:10.887Z,9.94
2023-05-09T03:51:10.757Z,10.11
2023-05-09T03:52:10.752Z,9.78
2023-05-09T03:53:10.742Z,10.11
2023-05-09T03:54:10.746Z,10.11
2023-05-09T03:55:10.752Z,10.11
2023-05-09T03:56:10.759Z,9.78
2023-05-09T03:57:10.763Z,9.94
2023-05-09T03:58:10.764Z,10.11
2023-05-09T04:00:10.762Z,10.11
2023-05-09T04:01:10.754Z,10.11
2023-05-09T04:03:10.902Z,9.78
2023-05-09T04:04:10.786Z,10.11
2023-05-09T04:05:10.891Z,9.78
2023-05-09T04:07:10.781Z,9.5
2023-05-09T04:08:10.761Z,10.11
2023-05-09T04:09:10.789Z,9.94
2023-05-09T04:11:10.774Z,10.11
2023-05-09T04:13:10.817Z,9.94
2023-05-09T04:14:10.764Z,10.11
2023-05-09T04:15:10.775Z,9.78
2023-05-09T04:16:10.804Z,9.94
2023-05-09T04:17:10.837Z,10.11
2023-05-09T04:18:10.784Z,10.11
2023-05-09T04:19:10.791Z,10.11
2023-05-09T04:20:10.776Z,10.11
2023-05-09T04:21:10.902Z,9.94
2023-05-09T04:23:10.820Z,9.78
2023-05-09T04:24:10.764Z,10.11
2023-05-09T04:25:10.785Z,10.11
2023-05-09T04:27:10.777Z,10.11
2023-05-09T04:29:10.809Z,10.22
2023-05-09T04:30:10.808Z,10.22
2023-05-09T04:31:10.864Z,10.11
2023-05-09T04:32:10.815Z,10.22
2023-05-09T04:33:10.806Z,10.22
2023-05-09T04:34:10.833Z,10.11
2023-05-09T04:36:10.801Z,9.94
2023-05-09T04:37:10.908Z,10.11
2023-05-09T04:39:10.806Z,10.11
2023-05-09T04:41:10.808Z,10.11
2023-05-09T04:42:10.806Z,10.11
2023-05-09T04:43:10.820Z,10.22
2023-05-09T04:45:10.804Z,10.11
2023-05-09T04:47:10.805Z,10.11
2023-05-09T04:48:10.804Z,10.11
2023-05-09T04:49:10.814Z,10.39
2023-05-09T04:50:10.809Z,10.11
2023-05-09T04:51:10.801Z,9.94
2023-05-09T04:52:10.826Z,10.22
2023-05-09T04:53:10.945Z,10.39
2023-05-09T04:55:10.830Z,10.39
2023-05-09T04:56:10.819Z,10.22
2023-05-09T04:57:17.640Z,10.22
2023-05-09T04:59:10.831Z,10.22
2023-05-09T05:01:10.857Z,10.22
2023-05-09T05:02:10.822Z,10.56
2023-05-09T05:03:10.843Z,10.39
2023-05-09T05:04:10.918Z,10.39
2023-05-09T05:05:12.291Z,10.39
2023-05-09T05:06:10.866Z,10.39
2023-05-09T05:08:10.857Z,10.39
2023-05-09T05:09:10.954Z,10.22
2023-05-09T05:11:10.823Z,10.56
2023-05-09T05:12:10.871Z,10.56
2023-05-09T05:14:10.850Z,10.56
2023-05-09T05:15:10.840Z,10.67
2023-05-09T05:17:10.864Z,10.67
2023-05-09T05:18:10.849Z,11
2023-05-09T05:20:10.863Z,10.67
2023-05-09T05:21:10.855Z,10.67
2023-05-09T05:22:10.843Z,10.83
2023-05-09T05:23:10.853Z,11
2023-05-09T05:24:10.845Z,10.67
2023-05-09T05:25:10.970Z,11
2023-05-09T05:26:10.828Z,11
2023-05-09T05:27:10.846Z,11.44
2023-05-09T05:29:10.837Z,11.44
2023-05-09T05:30:10.845Z,10.83
2023-05-09T05:31:10.884Z,11
2023-05-09T05:32:10.841Z,11.44
2023-05-09T05:33:10.881Z,11.61
2023-05-09T05:35:10.852Z,11.72
2023-05-09T05:36:10.851Z,11.72
2023-05-09T05:37:10.852Z,11.61
2023-05-09T05:39:10.860Z,11.72
2023-05-09T05:40:10.874Z,11.72
2023-05-09T05:41:10.995Z,11.61
2023-05-09T05:43:10.851Z,11.83
2023-05-09T05:45:10.856Z,11.61
2023-05-09T05:47:10.883Z,11.44
2023-05-09T05:48:10.916Z,11.72
2023-05-09T05:49:10.870Z,11.83
2023-05-09T05:50:10.868Z,11.83
2023-05-09T05:51:10.872Z,11.94
2023-05-09T05:53:10.896Z,11.44
2023-05-09T05:54:10.882Z,11.83
2023-05-09T05:56:10.868Z,12.11
2023-05-09T05:57:10.994Z,12.11
2023-05-09T05:59:13.173Z,12.11
2023-05-09T06:00:10.878Z,12.28
2023-05-09T06:02:10.923Z,12.72
2023-05-09T06:03:10.894Z,12.72
2023-05-09T06:04:10.913Z,12.89
2023-05-09T06:05:10.864Z,12.89
2023-05-09T06:06:10.870Z,12.89
2023-05-09T06:07:10.890Z,13.33
2023-05-09T06:08:10.871Z,13.5
2023-05-09T06:09:10.886Z,13.67
2023-05-09T06:11:10.899Z,13.17
2023-05-09T06:12:10.879Z,13.33
2023-05-09T06:13:11.073Z,13.33
2023-05-09T06:15:10.889Z,13.78
2023-05-09T06:17:11.006Z,15
2023-05-09T06:18:10.899Z,15
2023-05-09T06:20:10.887Z,15.22
2023-05-09T06:21:10.870Z,15.39
2023-05-09T06:22:10.881Z,15.22
2023-05-09T06:24:16.891Z,14.89
2023-05-09T06:26:10.884Z,13.94
2023-05-09T06:28:10.889Z,14.06
2023-05-09T06:29:11.016Z,13.78
2023-05-09T06:31:10.949Z,13.67
2023-05-09T06:32:10.918Z,14.06
2023-05-09T06:33:10.880Z,14.06
2023-05-09T06:34:10.887Z,14.28
2023-05-09T06:35:10.887Z,14.56
2023-05-09T06:36:10.888Z,14.56
2023-05-09T06:37:10.908Z,14.56
2023-05-09T06:39:10.890Z,14.28
2023-05-09T06:41:10.895Z,14.67
2023-05-09T06:42:10.883Z,15
2023-05-09T06:43:10.921Z,15.72
2023-05-09T06:44:10.911Z,16.83
2023-05-09T06:45:11.081Z,15.56
2023-05-09T06:47:10.901Z,14.28
2023-05-09T06:48:10.892Z,14.67
2023-05-09T06:49:10.929Z,15
2023-05-09T06:50:10.930Z,15.39
2023-05-09T06:52:10.903Z,18.78
2023-05-09T06:53:10.893Z,20.22
2023-05-09T06:54:10.917Z,20.5
2023-05-09T06:55:10.898Z,20.22
2023-05-09T06:56:10.912Z,18.28
2023-05-09T06:57:10.895Z,16.39
2023-05-09T06:58:10.906Z,15.89
2023-05-09T07:00:10.917Z,16.83
2023-05-09T07:01:11.084Z,15.89
2023-05-09T07:03:10.947Z,14.67
2023-05-09T07:04:10.913Z,14.06
2023-05-09T07:05:10.993Z,13.78
2023-05-09T07:06:10.923Z,14.39
2023-05-09T07:08:10.916Z,14.56
2023-05-09T07:09:10.933Z,14.89
2023-05-09T07:11:10.956Z,15.89
2023-05-09T07:12:10.921Z,15.89
2023-05-09T07:14:10.914Z,14.89
2023-05-09T07:15:10.940Z,15.56
2023-05-09T07:17:22.592Z,20.22
2023-05-09T07:19:10.920Z,21.89
2023-05-09T07:20:10.919Z,21.5
2023-05-09T07:22:10.949Z,21.17
2023-05-09T07:23:10.914Z,21.5
2023-05-09T07:24:10.926Z,22.06
2023-05-09T07:25:10.919Z,21.5
2023-05-09T07:27:10.922Z,21.17
2023-05-09T07:28:10.936Z,21.5
2023-05-09T07:31:10.915Z,21.39
2023-05-09T07:32:10.994Z,20.72
2023-05-09T07:33:11.114Z,20.22
2023-05-09T07:35:10.942Z,19.28
2023-05-09T07:36:10.921Z,19.72
2023-05-09T07:37:11.255Z,18.89
2023-05-09T07:38:10.990Z,18.89
2023-05-09T07:39:10.917Z,18.28
2023-05-09T07:40:10.920Z,18.11
2023-05-09T07:41:10.921Z,17.78
2023-05-09T07:42:10.967Z,17.17
2023-05-09T07:43:10.913Z,16.67
2023-05-09T07:44:10.931Z,16.83
2023-05-09T07:45:10.922Z,17.44
2023-05-09T07:46:10.968Z,17.28
2023-05-09T07:47:10.919Z,15.89
2023-05-09T07:48:11.014Z,15.56
2023-05-09T07:49:11.025Z,15.78
2023-05-09T07:51:10.940Z,16.5
2023-05-09T07:53:10.948Z,14.78
2023-05-09T07:54:10.950Z,14.89
2023-05-09T07:55:10.955Z,15.17
2023-05-09T07:56:10.941Z,15.28
2023-05-09T07:57:10.940Z,15.78
2023-05-09T07:59:10.947Z,17.5
2023-05-09T08:01:10.950Z,17.94
2023-05-09T08:02:10.960Z,18.17
2023-05-09T08:03:11.035Z,18.5
2023-05-09T08:05:11.052Z,19.28
2023-05-09T08:07:10.949Z,18.94
2023-05-09T08:08:10.962Z,19.06
2023-05-09T08:09:10.944Z,18.94
2023-05-09T08:10:10.931Z,18.61
2023-05-09T08:11:10.959Z,18.94
2023-05-09T08:12:10.932Z,18.94
2023-05-09T08:13:11.000Z,18.44
2023-05-09T08:14:10.946Z,18.44
2023-05-09T08:16:10.958Z,18.61
2023-05-09T08:17:10.949Z,18.44
2023-05-09T08:19:10.941Z,18.94
2023-05-09T08:20:10.965Z,18.44
2023-05-09T08:21:11.057Z,18.44
2023-05-09T08:23:10.996Z,17.94
2023-05-09T08:25:10.952Z,18.17
2023-05-09T08:26:10.970Z,17.94
2023-05-09T08:28:10.955Z,17.17
2023-05-09T08:29:10.949Z,17.5
2023-05-09T08:30:10.961Z,17.67
2023-05-09T08:31:10.967Z,17.83
2023-05-09T08:32:10.951Z,17.94
2023-05-09T08:33:11.033Z,17.94
2023-05-09T08:34:10.957Z,17.83
2023-05-09T08:35:10.983Z,18.17
2023-05-09T08:37:12.887Z,18.17
2023-05-09T08:39:10.959Z,17.94
2023-05-09T08:41:10.956Z,17.83
2023-05-09T08:42:10.966Z,17.94
2023-05-09T08:43:10.955Z,18.28
2023-05-09T08:44:10.971Z,17.83
2023-05-09T08:45:10.958Z,17.94
2023-05-09T08:46:11.059Z,17.5
2023-05-09T08:48:10.964Z,17.5
2023-05-09T08:49:10.981Z,17.94
2023-05-09T08:51:10.975Z,17.94
2023-05-09T08:52:10.955Z,17.5
2023-05-09T08:53:11.107Z,17.33
2023-05-09T08:55:10.970Z,17.5
2023-05-09T08:57:10.959Z,17.5
2023-05-09T08:58:10.968Z,17.94
2023-05-09T08:59:10.963Z,17.5
2023-05-09T09:00:10.989Z,17.94
2023-05-09T09:01:10.991Z,17.67
2023-05-09T09:02:11.136Z,17.5
2023-05-09T09:03:11.064Z,17.83
2023-05-09T09:05:19.757Z,17.67
2023-05-09T09:06:10.957Z,17.67
2023-05-09T09:07:10.976Z,17.94
2023-05-09T09:08:11.103Z,17.94
2023-05-09T09:09:11.116Z,17.94
2023-05-09T09:11:10.977Z,17.83
2023-05-09T09:12:10.962Z,17.83
2023-05-09T09:13:10.987Z,17.5
2023-05-09T09:14:10.963Z,17.67
2023-05-09T09:15:10.970Z,17.94
2023-05-09T09:16:11.051Z,17.94
2023-05-09T09:17:10.973Z,17.94
2023-05-09T09:19:10.971Z,17.94
2023-05-09T09:20:11.002Z,18.28
2023-05-09T09:22:10.987Z,18.28
2023-05-09T09:23:10.984Z,17.94
2023-05-09T09:24:11.010Z,18.17
2023-05-09T09:25:11.103Z,17.94
2023-05-09T09:27:10.991Z,18.78
2023-05-09T09:29:10.988Z,19.44
2023-05-09T09:30:11.015Z,19.78
2023-05-09T09:32:11.017Z,19.56
2023-05-09T09:33:11.013Z,19.94
2023-05-09T09:34:10.992Z,18.94
2023-05-09T09:35:10.994Z,18.94
2023-05-09T09:36:10.990Z,18.78
2023-05-09T09:37:10.995Z,18.28
2023-05-09T09:38:10.996Z,17.94
2023-05-09T09:39:11.016Z,18.44
2023-05-09T09:40:10.994Z,19.28
2023-05-09T09:41:11.135Z,18.94
2023-05-09T09:43:11.002Z,18.94
2023-05-09T09:44:11.010Z,18.94
2023-05-09T09:46:11.064Z,19.78
2023-05-09T09:48:11.051Z,19.28
2023-05-09T09:49:11.009Z,19.78
2023-05-09T09:50:11.016Z,19.28
2023-05-09T09:51:11.029Z,18.78
2023-05-09T09:53:11.012Z,20.11
2023-05-09T09:54:11.006Z,19.94
2023-05-09T09:55:11.036Z,20.22
2023-05-09T09:56:11.015Z,19.94
2023-05-09T09:57:11.131Z,19.56
2023-05-09T09:59:11.013Z,19.94
2023-05-09T10:00:11.017Z,20.11
2023-05-09T10:02:11.047Z,18.94
2023-05-09T10:04:11.062Z,19.94
2023-05-09T10:06:11.026Z,20.22
2023-05-09T10:08:11.029Z,20.33
2023-05-09T10:09:11.032Z,20.78
2023-05-09T10:10:11.038Z,20.22
2023-05-09T10:12:11.035Z,20.33
2023-05-09T10:13:11.165Z,20.56
2023-05-09T10:15:11.044Z,20.11
2023-05-09T10:16:11.085Z,20.39
2023-05-09T10:17:11.074Z,20.22
2023-05-09T10:18:11.146Z,20.11
2023-05-09T10:19:11.036Z,20.39
2023-05-09T10:20:11.031Z,19.83
2023-05-09T10:21:11.022Z,19.83
2023-05-09T10:22:11.030Z,20.11
2023-05-09T10:23:11.029Z,20.39
2023-05-09T10:24:11.055Z,19.44
2023-05-09T10:26:11.033Z,19.44
2023-05-09T10:27:11.043Z,20.56
2023-05-09T10:28:11.038Z,20.83
2023-05-09T10:29:11.164Z,21.56
2023-05-09T10:31:11.069Z,19.61
2023-05-09T10:32:11.043Z,19.61
2023-05-09T10:33:11.099Z,19.44
2023-05-09T10:34:11.043Z,19.94
2023-05-09T10:35:11.034Z,19.61
2023-05-09T10:36:11.045Z,19.11
2023-05-09T10:37:11.031Z,18.5
2023-05-09T10:38:11.043Z,19.11
2023-05-09T10:39:11.035Z,18.94
2023-05-09T10:40:11.042Z,18.17
2023-05-09T10:41:11.051Z,19.44
2023-05-09T10:42:11.037Z,20.11
2023-05-09T10:43:11.060Z,20.11
2023-05-09T10:45:11.178Z,19.94
2023-05-09T10:47:11.060Z,21.06
2023-05-09T10:49:11.056Z,21.06
2023-05-09T10:50:11.050Z,21.06
2023-05-09T10:51:11.049Z,20.11
2023-05-09T10:52:11.062Z,19.61
2023-05-09T10:53:11.045Z,18.5
2023-05-09T10:54:11.064Z,19.11
2023-05-09T10:56:11.058Z,19.61
2023-05-09T10:57:11.081Z,20.11
2023-05-09T10:59:11.055Z,20.22
2023-05-09T11:00:11.066Z,19.61
2023-05-09T11:01:11.223Z,19.61
2023-05-09T11:03:11.177Z,19.61
2023-05-09T11:04:11.126Z,20.39
2023-05-09T11:05:11.069Z,19.44
2023-05-09T11:06:11.060Z,19.61
2023-05-09T11:07:11.077Z,20.11
2023-05-09T11:09:11.079Z,19.44
2023-05-09T11:10:11.064Z,19.44
2023-05-09T11:11:11.093Z,19.94
2023-05-09T11:13:11.100Z,21.72
2023-05-09T11:15:11.087Z,22.06
2023-05-09T11:16:11.174Z,22.06
2023-05-09T11:17:11.235Z,22.22
2023-05-09T11:19:11.082Z,21.72
2023-05-09T11:20:11.078Z,22.06
2023-05-09T11:21:11.090Z,22.06
2023-05-09T11:23:11.094Z,22.22
2023-05-09T11:24:11.092Z,21.22
2023-05-09T11:25:11.080Z,21.06
2023-05-09T11:26:11.078Z,20.83
2023-05-09T11:28:11.095Z,22.06
2023-05-09T11:30:11.106Z,21.06
2023-05-09T11:31:11.113Z,21.22
2023-05-09T11:32:11.107Z,20.56
2023-05-09T11:33:11.226Z,20.72
2023-05-09T11:35:11.102Z,20.22
2023-05-09T11:36:12.137Z,20.11
2023-05-09T11:38:11.100Z,21.56
2023-05-09T11:40:11.102Z,20.83
2023-05-09T11:41:11.125Z,20.83
2023-05-09T11:42:11.123Z,20.72
2023-05-09T11:44:11.098Z,21.22
2023-05-09T11:46:11.167Z,20.89
2023-05-09T11:47:11.094Z,20.78
2023-05-09T11:48:11.164Z,20.78
2023-05-09T11:49:12.089Z,20.78
2023-05-09T11:51:11.103Z,20.89
2023-05-09T11:52:11.125Z,21.39
2023-05-09T11:54:11.112Z,20.56
2023-05-09T11:55:12.597Z,20.78
2023-05-09T11:56:11.121Z,21.39
2023-05-09T11:57:11.106Z,22.22
2023-05-09T11:58:11.097Z,22.78
2023-05-09T11:59:11.126Z,22.78
2023-05-09T12:00:11.110Z,22.22
2023-05-09T12:02:11.124Z,20.78
2023-05-09T12:04:11.144Z,20.89
2023-05-09T12:05:11.237Z,21.06
2023-05-09T12:07:11.108Z,21.72
2023-05-09T12:09:11.123Z,20.39
2023-05-09T12:10:11.126Z,21.22
2023-05-09T12:11:11.104Z,21.39
2023-05-09T12:13:11.121Z,20.89
2023-05-09T12:14:11.108Z,21.22
2023-05-09T12:15:11.123Z,21.39
2023-05-09T12:16:11.167Z,20.89
2023-05-09T12:18:11.178Z,21.22
2023-05-09T12:20:11.137Z,20.89
2023-05-09T12:21:11.221Z,20.39
2023-05-09T12:23:11.109Z,20.78
2023-05-09T12:25:11.107Z,21.39
2023-05-09T12:26:11.119Z,20.89
2023-05-09T12:27:11.118Z,19.83
2023-05-09T12:28:11.119Z,20.28
2023-05-09T12:29:11.122Z,20.39
2023-05-09T12:30:11.170Z,19.83
2023-05-09T12:31:11.129Z,19.83
2023-05-09T12:32:11.136Z,20.28
2023-05-09T12:33:11.145Z,20.28
2023-05-09T12:34:11.126Z,20.11
2023-05-09T12:36:11.328Z,21.06
2023-05-09T12:37:11.235Z,20.78
2023-05-09T12:39:11.115Z,21.72
2023-05-09T12:40:11.118Z,22.22
2023-05-09T12:41:22.234Z,21.22
2023-05-09T12:42:11.117Z,20.78
2023-05-09T12:43:11.123Z,20.78
2023-05-09T12:44:11.120Z,20
2023-05-09T12:45:11.259Z,19.83
2023-05-09T12:46:11.128Z,20
2023-05-09T12:47:11.165Z,20
2023-05-09T12:48:11.167Z,20.78
2023-05-09T12:49:11.140Z,20.11
2023-05-09T12:50:11.127Z,20.28
2023-05-09T12:51:11.135Z,20
2023-05-09T12:52:11.149Z,20
2023-05-09T12:53:11.290Z,20.28
2023-05-09T12:55:11.140Z,21.06
2023-05-09T12:57:11.157Z,22.22
2023-05-09T12:58:11.129Z,22.22
2023-05-09T12:59:11.134Z,22.22
2023-05-09T13:00:11.138Z,22.78
2023-05-09T13:01:11.165Z,22.78
2023-05-09T13:02:11.174Z,22.78
2023-05-09T13:03:11.162Z,22.22
2023-05-09T13:04:12.585Z,22.22
2023-05-09T13:05:11.164Z,22.78
2023-05-09T13:06:11.148Z,22.78
2023-05-09T13:08:11.169Z,22.22
2023-05-09T13:09:11.272Z,22.22
2023-05-09T13:11:15.981Z,23.11
2023-05-09T13:13:11.224Z,22.78
2023-05-09T13:15:11.208Z,23.67
2023-05-09T13:17:11.227Z,23.28
2023-05-09T13:18:11.183Z,22.94
2023-05-09T13:19:11.170Z,24.17
2023-05-09T13:20:11.156Z,24.89
2023-05-09T13:21:11.160Z,24.89
2023-05-09T13:23:11.160Z,23.83
2023-05-09T13:25:11.274Z,23.83
2023-05-09T13:27:11.163Z,24.33
2023-05-09T13:28:11.170Z,24.5
2023-05-09T13:30:11.171Z,23.83
2023-05-09T13:31:11.272Z,24
2023-05-09T13:32:11.173Z,24.33
2023-05-09T13:33:24.318Z,24
2023-05-09T13:35:11.166Z,24.17
2023-05-09T13:36:11.185Z,23.83
2023-05-09T13:37:11.184Z,24
2023-05-09T13:38:11.168Z,24.89
2023-05-09T13:39:11.175Z,24.67
2023-05-09T13:40:11.203Z,24.33
2023-05-09T13:41:11.336Z,24.33
2023-05-09T13:43:11.212Z,23.28
2023-05-09T13:44:11.200Z,23.28
2023-05-09T13:45:11.173Z,23.67
2023-05-09T13:46:11.241Z,24
2023-05-09T13:47:11.180Z,24.17
2023-05-09T13:48:11.248Z,24
2023-05-09T13:49:11.192Z,24.33
2023-05-09T13:50:11.233Z,24.17
2023-05-09T13:51:11.177Z,23.83
2023-05-09T13:52:11.208Z,23.11
2023-05-09T13:53:11.197Z,22.61
2023-05-09T13:54:11.196Z,23.83
2023-05-09T13:55:11.192Z,24.33
2023-05-09T13:56:11.215Z,24.33
2023-05-09T13:57:11.316Z,24.5
2023-05-09T13:59:11.198Z,23.83
2023-05-09T14:00:11.515Z,23.67
2023-05-09T14:02:11.215Z,23.28
2023-05-09T14:03:11.215Z,23.28
2023-05-09T14:05:11.217Z,23.67
2023-05-09T14:06:12.029Z,24.17
2023-05-09T14:07:11.263Z,24
2023-05-09T14:08:11.225Z,24.33
2023-05-09T14:09:11.223Z,24
2023-05-09T14:10:12.259Z,24
2023-05-09T14:11:11.214Z,24.56
2023-05-09T14:12:12.501Z,24.94
2023-05-09T14:13:11.496Z,24.67
2023-05-09T14:15:11.307Z,25.06
2023-05-09T14:17:11.225Z,23.67
2023-05-09T14:19:11.250Z,24.17
2023-05-09T14:20:11.232Z,23.44
2023-05-09T14:21:11.236Z,23.67
2023-05-09T14:22:11.231Z,23.67
2023-05-09T14:23:11.230Z,24
2023-05-09T14:24:12.550Z,23.44
2023-05-09T14:26:11.262Z,23.44
2023-05-09T14:27:11.226Z,24
2023-05-09T14:28:11.243Z,24
2023-05-09T14:29:11.355Z,24
2023-05-09T14:31:11.334Z,25.06
2023-05-09T14:32:11.240Z,26.11
2023-05-09T14:33:11.231Z,26.17
2023-05-09T14:34:11.246Z,26.56
2023-05-09T14:35:11.284Z,25.61
2023-05-09T14:37:11.245Z,24.5
2023-05-09T14:38:11.255Z,24.33
2023-05-09T14:39:11.249Z,24.17
2023-05-09T14:40:11.260Z,24.5
2023-05-09T14:41:11.273Z,24.67
2023-05-09T14:42:11.271Z,24.89
2023-05-09T14:44:11.263Z,24.67
2023-05-09T14:45:11.406Z,25.06
2023-05-09T14:47:11.490Z,25.06
2023-05-09T14:48:12.294Z,24.5
2023-05-09T14:50:11.262Z,24.17
2023-05-09T14:51:11.300Z,24
2023-05-09T14:52:11.303Z,23.44
2023-05-09T14:53:11.295Z,23.28
2023-05-09T14:54:11.253Z,23.44
2023-05-09T14:55:11.261Z,24
2023-05-09T14:56:11.543Z,23.44
2023-05-09T14:58:11.270Z,24.17
2023-05-09T14:59:11.281Z,24.67
2023-05-09T15:00:20.011Z,24.5
2023-05-09T15:01:11.440Z,24.89
2023-05-09T15:03:11.299Z,25.22
2023-05-09T15:04:11.331Z,25.44
2023-05-09T15:06:12.094Z,25.06
2023-05-09T15:07:11.284Z,24.67
2023-05-09T15:08:11.300Z,24.89
2023-05-09T15:09:11.287Z,25.61
2023-05-09T15:10:11.278Z,26.17
2023-05-09T15:11:11.274Z,26.56
2023-05-09T15:13:11.366Z,26.56
2023-05-09T15:15:11.301Z,26.33
2023-05-09T15:17:11.445Z,26.83
2023-05-09T15:19:11.369Z,27.17
2023-05-09T15:21:11.275Z,27.39
2023-05-09T15:22:11.302Z,26.56
2023-05-09T15:23:11.435Z,26.17
2023-05-09T15:24:11.299Z,26.17
2023-05-09T15:25:11.291Z,25.44
2023-05-09T15:26:11.293Z,25.06
2023-05-09T15:28:11.287Z,24.17
2023-05-09T15:29:11.345Z,24.17
2023-05-09T15:30:11.326Z,25.22
2023-05-09T15:32:11.358Z,26.33
2023-05-09T15:33:11.482Z,25.61
2023-05-09T15:35:11.335Z,25.78
2023-05-09T15:36:11.296Z,26.17
2023-05-09T15:37:11.306Z,26.72
2023-05-09T15:38:11.301Z,26.72
2023-05-09T15:39:11.308Z,26.72
2023-05-09T15:40:11.350Z,26.83
2023-05-09T15:41:11.333Z,27.39
2023-05-09T15:42:11.314Z,27.72
2023-05-09T15:43:11.318Z,28.11
2023-05-09T15:44:11.314Z,27.17
2023-05-09T15:45:11.332Z,26.72
2023-05-09T15:47:11.366Z,27.72
2023-05-09T15:49:11.443Z,28.33
2023-05-09T15:51:11.315Z,26.72
2023-05-09T15:52:11.380Z,25.61
2023-05-09T15:54:11.331Z,25.61
2023-05-09T15:55:11.378Z,25.61
2023-05-09T15:56:11.351Z,26.94
2023-05-09T15:58:11.399Z,26.33
2023-05-09T16:00:11.341Z,26.17
2023-05-09T16:01:11.411Z,25.78
2023-05-09T16:03:11.420Z,25.06
2023-05-09T16:04:11.354Z,24.89
2023-05-09T16:05:11.454Z,25.61
2023-05-09T16:06:11.352Z,25.61
2023-05-09T16:07:11.393Z,25.61
2023-05-09T16:09:11.423Z,25.61
2023-05-09T16:11:11.414Z,26
2023-05-09T16:12:11.335Z,24.5
2023-05-09T16:13:11.504Z,24.17
2023-05-09T16:14:11.420Z,24.17
2023-05-09T16:15:11.345Z,24.33
2023-05-09T16:16:11.400Z,24
2023-05-09T16:17:11.348Z,24.5
2023-05-09T16:18:11.341Z,23.83
2023-05-09T16:19:11.360Z,24
2023-05-09T16:20:11.332Z,24
2023-05-09T16:21:11.589Z,23.83
2023-05-09T16:23:11.349Z,24.89
2023-05-09T16:24:11.341Z,24.5
2023-05-09T16:25:11.358Z,24.5
2023-05-09T16:26:11.356Z,24
2023-05-09T16:28:11.355Z,24.17
2023-05-09T16:29:11.335Z,24.33
2023-05-09T16:30:11.363Z,24
2023-05-09T16:32:11.416Z,24
2023-05-09T16:33:11.341Z,24.5
2023-05-09T16:34:11.363Z,24
2023-05-09T16:35:11.358Z,24
2023-05-09T16:36:11.367Z,24
2023-05-09T16:37:11.502Z,23.44
2023-05-09T16:39:11.429Z,23.28
2023-05-09T16:40:11.367Z,23.44
2023-05-09T16:41:11.355Z,22.78
2023-05-09T16:42:11.381Z,21.78